KPHD/PHD METAR and TAF weather

Enter ICAO airport designator
Station Type Date Time Source
KPHD METAR 2020/01/27 16:53 UTC NOAA

KPHD 271653Z AUTO 28007KT 9SM OVC014 02/M02 A2987 RMK AO2 SLP121 T00171017


Station Type Date Time Source
KPHD Decoded METAR 2020/01/27 16:53 UTC NOAA

NEW PHILADELPHIA CLEVER FLD, OH, United States (KPHD) 40-28N 81-25W 272M
Jan 27, 2020 - 11:53 AM EST / 2020.01.27 1653 UTC
Wind: from the W (280 degrees) at 8 MPH (7 KT):0
Visibility: 9 mile(s):0
Sky conditions: overcast
Temperature: 35.1 F (1.7 C)
Dew Point: 28.9 F (-1.7 C)
Relative Humidity: 78%
Pressure (altimeter): 29.87 in. Hg (1011 hPa)
ob: KPHD 271653Z AUTO 28007KT 9SM OVC014 02/M02 A2987 RMK AO2 SLP121 T00171017
cycle: 17

Station Type Date Time Source
KPHD TAF UTC NOAA

Error!

Example: see airport list